Time;durP1;ratioP1;P1;durP2;ratioP2;P2;SDS_P1;SDS_P2;PMS_P1;PMS_P2;Temp;Humidity;BMP_temperature;BMP_pressure;BME280_temperature;BME280_humidity;BME280_pressure;Samples;Min_cycle;Max_cycle;Signal;HPM_P1;HPM_P2
2021/10/13 00:00:53;;;;;;;13.53;6.27;;;;;;;;;;5029135;28;20031;-72
2021/10/13 00:03:18;;;;;;;10.50;5.50;;;;;;;;;;5028800;28;20112;-72
2021/10/13 00:05:44;;;;;;;22.37;5.50;;;;;;;;;;5027680;28;20521;-72
2021/10/13 00:08:09;;;;;;;11.27;5.80;;;;;;;;;;5028646;28;20033;-70
2021/10/13 00:10:35;;;;;;;15.03;6.17;;;;;;;;;;5028678;28;20039;-71
2021/10/13 00:13:00;;;;;;;10.93;5.50;;;;;;;;;;5030322;28;20037;-72
2021/10/13 00:15:26;;;;;;;11.17;5.77;;;;;;;;;;5032598;28;20393;-72
2021/10/13 00:17:51;;;;;;;14.90;5.80;;;;;;;;;;5031419;28;20083;-72
2021/10/13 00:20:17;;;;;;;17.13;5.80;;;;;;;;;;5032815;28;20036;-72
2021/10/13 00:22:42;;;;;;;14.33;5.67;;;;;;;;;;5014602;28;20489;-72
2021/10/13 00:25:08;;;;;;;10.83;5.00;;;;;;;;;;5031174;28;20489;-72
2021/10/13 00:27:33;;;;;;;14.33;5.07;;;;;;;;;;5032222;28;20026;-72
2021/10/13 00:29:59;;;;;;;13.30;5.50;;;;;;;;;;5030920;28;20539;-75
2021/10/13 00:32:24;;;;;;;17.10;6.73;;;;;;;;;;5032035;28;20030;-74
2021/10/13 00:34:50;;;;;;;16.97;6.30;;;;;;;;;;5032247;28;20469;-73
2021/10/13 00:37:16;;;;;;;13.47;6.70;;;;;;;;;;5032253;28;20385;-75
2021/10/13 00:39:41;;;;;;;15.47;7.40;;;;;;;;;;5030534;28;20536;-74
2021/10/13 00:42:07;;;;;;;15.70;7.27;;;;;;;;;;5031197;28;20448;-75
2021/10/13 00:44:32;;;;;;;15.40;6.30;;;;;;;;;;5030633;28;20500;-75
2021/10/13 00:47:00;;;;;;;15.67;7.07;;;;;;;;;;5031813;28;20036;-75
2021/10/13 00:49:27;;;;;;;18.23;6.87;;;;;;;;;;5032367;28;20401;-75
2021/10/13 00:51:54;;;;;;;17.23;7.43;;;;;;;;;;5031250;28;20040;-73
2021/10/13 00:54:22;;;;;;;20.87;8.20;;;;;;;;;;5033142;28;20033;-74
2021/10/13 00:56:47;;;;;;;15.17;7.80;;;;;;;;;;5037164;28;20029;-75
2021/10/13 00:59:13;;;;;;;13.60;7.47;;;;;;;;;;5038660;28;20042;-74
2021/10/13 01:01:47;;;;;;;16.43;7.67;;;;;;;;;;5037161;28;20037;-75
2021/10/13 01:04:46;;;;;;;14.63;6.70;;;;;;;;;;5032068;28;20470;-75
2021/10/13 01:07:35;;;;;;;17.67;6.97;;;;;;;;;;5029989;28;20269;-75
2021/10/13 01:10:22;;;;;;;14.00;7.03;;;;;;;;;;5030253;28;20034;-75
2021/10/13 01:13:05;;;;;;;14.00;7.40;;;;;;;;;;5031765;28;20515;-75
2021/10/13 01:15:45;;;;;;;17.97;7.90;;;;;;;;;;5031293;28;20030;-75
2021/10/13 01:18:35;;;;;;;17.43;7.70;;;;;;;;;;5031674;28;20112;-75
2021/10/13 01:21:28;;;;;;;15.23;7.40;;;;;;;;;;5023902;28;20080;-74
2021/10/13 01:23:56;;;;;;;19.20;7.63;;;;;;;;;;5029413;28;20075;-75
2021/10/13 01:26:31;;;;;;;19.83;8.00;;;;;;;;;;5031094;28;20083;-74
2021/10/13 01:29:10;;;;;;;15.70;7.57;;;;;;;;;;5031340;28;20032;-75
2021/10/13 01:31:56;;;;;;;15.47;7.93;;;;;;;;;;5030999;28;20029;-73
2021/10/13 01:34:26;;;;;;;21.17;13.43;;;;;;;;;;5031276;28;20033;-74
2021/10/13 01:37:05;;;;;;;20.50;11.10;;;;;;;;;;5031382;28;20384;-75
2021/10/13 01:39:32;;;;;;;17.27;8.60;;;;;;;;;;5029400;28;20521;-75
2021/10/13 01:42:02;;;;;;;17.63;7.23;;;;;;;;;;5029716;28;20034;-76
2021/10/13 01:44:30;;;;;;;15.80;7.00;;;;;;;;;;5030797;28;20025;-74
2021/10/13 01:46:57;;;;;;;15.83;7.43;;;;;;;;;;5031267;28;20113;-73
2021/10/13 01:49:23;;;;;;;20.57;7.50;;;;;;;;;;5030869;28;20453;-74
2021/10/13 01:51:50;;;;;;;15.60;6.60;;;;;;;;;;5030215;28;20056;-75
2021/10/13 01:54:17;;;;;;;13.17;6.77;;;;;;;;;;5031329;28;20021;-76
2021/10/13 01:56:44;;;;;;;18.87;6.97;;;;;;;;;;5031554;28;20112;-74
2021/10/13 01:59:21;;;;;;;16.90;7.27;;;;;;;;;;5029745;28;20058;-75
2021/10/13 02:01:48;;;;;;;16.00;6.77;;;;;;;;;;5030561;28;20057;-76
2021/10/13 02:04:14;;;;;;;20.23;7.93;;;;;;;;;;5030868;28;20068;-74
2021/10/13 02:06:42;;;;;;;17.83;8.23;;;;;;;;;;5030353;28;20485;-76
2021/10/13 02:09:09;;;;;;;16.77;8.03;;;;;;;;;;5030333;28;20536;-74
2021/10/13 02:11:35;;;;;;;18.57;7.83;;;;;;;;;;5028928;28;20394;-73
2021/10/13 02:14:09;;;;;;;14.93;7.33;;;;;;;;;;5030570;28;20388;-73
2021/10/13 02:16:37;;;;;;;20.10;7.40;;;;;;;;;;5028900;28;20034;-75
2021/10/13 02:19:05;;;;;;;13.20;6.73;;;;;;;;;;5029116;28;20124;-74
2021/10/13 02:21:33;;;;;;;14.00;7.20;;;;;;;;;;5030044;28;20158;-74
2021/10/13 02:23:59;;;;;;;16.93;7.17;;;;;;;;;;5029166;28;20136;-75
2021/10/13 02:26:32;;;;;;;15.23;7.37;;;;;;;;;;5030272;28;20136;-75
2021/10/13 02:29:11;;;;;;;19.10;8.57;;;;;;;;;;5029331;28;20546;-74
2021/10/13 02:31:37;;;;;;;25.53;9.43;;;;;;;;;;5029117;28;20029;-74
2021/10/13 02:34:02;;;;;;;20.07;9.60;;;;;;;;;;5030615;28;20377;-74
2021/10/13 02:36:28;;;;;;;22.90;9.70;;;;;;;;;;5029873;28;20025;-73
2021/10/13 02:38:53;;;;;;;17.23;8.37;;;;;;;;;;5028589;28;20135;-73
2021/10/13 02:41:19;;;;;;;19.13;6.87;;;;;;;;;;5030127;28;20033;-74
2021/10/13 02:43:44;;;;;;;18.87;6.83;;;;;;;;;;5028662;28;20091;-75
2021/10/13 02:46:30;;;;;;;17.60;6.73;;;;;;;;;;5030126;28;20071;-74
2021/10/13 02:49:04;;;;;;;20.50;5.93;;;;;;;;;;5028621;28;20029;-74
2021/10/13 02:51:47;;;;;;;16.27;6.30;;;;;;;;;;5029662;28;20111;-75
2021/10/13 02:54:29;;;;;;;10.73;5.90;;;;;;;;;;5030152;28;20040;-75
2021/10/13 02:56:57;;;;;;;15.25;5.95;;;;;;;;;;5029907;28;20033;-75
2021/10/13 02:59:26;;;;;;;14.00;5.77;;;;;;;;;;5028901;28;20028;-75
2021/10/13 03:01:57;;;;;;;17.13;6.57;;;;;;;;;;5030019;28;20079;-74
2021/10/13 03:04:30;;;;;;;13.67;6.17;;;;;;;;;;5030284;28;20500;-75
2021/10/13 03:07:02;;;;;;;15.80;6.50;;;;;;;;;;5030662;28;20036;-75
2021/10/13 03:09:32;;;;;;;17.63;7.30;;;;;;;;;;5028118;28;20091;-75
2021/10/13 03:12:01;;;;;;;13.87;5.53;;;;;;;;;;5028371;28;20040;-74
2021/10/13 03:14:29;;;;;;;17.57;6.13;;;;;;;;;;5029556;28;20400;-74
2021/10/13 03:16:56;;;;;;;19.17;6.87;;;;;;;;;;5028231;28;20021;-74
2021/10/13 03:19:23;;;;;;;14.03;5.83;;;;;;;;;;5028425;28;20095;-75
2021/10/13 03:21:50;;;;;;;14.90;6.33;;;;;;;;;;5028242;28;20474;-76
2021/10/13 03:24:17;;;;;;;11.87;6.43;;;;;;;;;;5028271;28;20026;-74
2021/10/13 03:26:50;;;;;;;14.63;6.70;;;;;;;;;;5028423;28;20540;-75
2021/10/13 03:29:15;;;;;;;18.43;6.33;;;;;;;;;;5029520;28;20034;-74
2021/10/13 03:31:41;;;;;;;24.63;7.73;;;;;;;;;;5028182;28;20527;-75
2021/10/13 03:34:07;;;;;;;17.67;6.63;;;;;;;;;;5028105;28;20103;-74
2021/10/13 03:36:40;;;;;;;17.97;6.07;;;;;;;;;;5028041;28;20021;-75
2021/10/13 03:39:06;;;;;;;18.90;7.43;;;;;;;;;;5029260;28;20038;-75
2021/10/13 03:41:31;;;;;;;12.77;6.20;;;;;;;;;;5029286;28;20029;-72
2021/10/13 03:43:57;;;;;;;14.30;7.40;;;;;;;;;;5029005;28;20087;-76
2021/10/13 03:46:23;;;;;;;20.17;7.73;;;;;;;;;;5027790;28;20022;-74
2021/10/13 03:48:50;;;;;;;15.93;6.67;;;;;;;;;;5032154;28;20238;-74
2021/10/13 03:51:17;;;;;;;17.80;7.90;;;;;;;;;;5032172;28;20137;-75
2021/10/13 03:53:43;;;;;;;17.67;6.83;;;;;;;;;;5032930;28;20385;-75
2021/10/13 03:56:10;;;;;;;13.83;6.30;;;;;;;;;;5033065;28;20029;-76
2021/10/13 03:58:37;;;;;;;19.47;7.37;;;;;;;;;;5031571;28;20079;-74
2021/10/13 04:01:03;;;;;;;20.30;8.50;;;;;;;;;;5033046;28;20030;-76
2021/10/13 04:03:28;;;;;;;19.37;8.50;;;;;;;;;;5032889;28;20032;-75
2021/10/13 04:05:54;;;;;;;19.77;8.73;;;;;;;;;;5032639;28;20033;-73
2021/10/13 04:08:19;;;;;;;18.13;7.20;;;;;;;;;;5032695;28;20034;-73
2021/10/13 04:10:45;;;;;;;18.10;7.27;;;;;;;;;;5032550;28;20090;-74
2021/10/13 04:13:10;;;;;;;21.03;7.33;;;;;;;;;;5032849;28;20056;-75
2021/10/13 04:15:36;;;;;;;17.47;6.80;;;;;;;;;;5032640;28;20025;-74
2021/10/13 04:18:03;;;;;;;19.53;8.67;;;;;;;;;;5033017;28;20025;-73
2021/10/13 04:20:29;;;;;;;20.97;8.13;;;;;;;;;;5031184;28;20056;-74
2021/10/13 04:22:54;;;;;;;20.17;7.87;;;;;;;;;;5032475;28;20056;-75
2021/10/13 04:25:20;;;;;;;19.63;7.93;;;;;;;;;;5032502;28;20104;-75
2021/10/13 04:27:46;;;;;;;18.47;9.23;;;;;;;;;;5032649;28;20109;-77
2021/10/13 04:30:11;;;;;;;15.93;7.20;;;;;;;;;;5014845;28;20037;-74
2021/10/13 04:32:36;;;;;;;23.63;8.07;;;;;;;;;;5030755;28;20033;-75
2021/10/13 04:35:02;;;;;;;19.87;7.67;;;;;;;;;;5032442;28;20032;-75
2021/10/13 04:37:28;;;;;;;17.07;7.40;;;;;;;;;;5031029;28;20385;-76
2021/10/13 04:39:53;;;;;;;15.03;6.73;;;;;;;;;;5031682;28;20120;-75
2021/10/13 04:42:19;;;;;;;15.63;6.23;;;;;;;;;;5030492;28;20062;-75
2021/10/13 04:44:44;;;;;;;15.03;7.30;;;;;;;;;;5011452;28;20041;-75
2021/10/13 04:47:10;;;;;;;17.70;7.43;;;;;;;;;;5022132;28;20349;-75
2021/10/13 04:49:37;;;;;;;20.47;6.70;;;;;;;;;;5020202;28;20026;-75
2021/10/13 04:52:03;;;;;;;15.77;6.97;;;;;;;;;;5025265;28;20126;-77
2021/10/13 04:54:29;;;;;;;14.80;6.73;;;;;;;;;;5021036;28;20033;-75
2021/10/13 04:56:54;;;;;;;15.87;7.03;;;;;;;;;;5024179;28;20112;-76
2021/10/13 04:59:20;;;;;;;12.53;7.10;;;;;;;;;;5017015;28;20065;-75
2021/10/13 05:01:45;;;;;;;17.07;8.17;;;;;;;;;;5028523;28;20048;-75
2021/10/13 05:04:11;;;;;;;19.30;7.77;;;;;;;;;;5014361;28;20065;-75
2021/10/13 05:06:36;;;;;;;15.67;7.63;;;;;;;;;;5017456;28;20039;-74
2021/10/13 05:09:02;;;;;;;20.57;7.57;;;;;;;;;;5025730;28;20025;-76
2021/10/13 05:11:28;;;;;;;18.87;7.73;;;;;;;;;;5022990;28;20373;-74
2021/10/13 05:13:53;;;;;;;23.43;6.70;;;;;;;;;;5024898;28;20038;-74
2021/10/13 05:16:19;;;;;;;15.83;7.93;;;;;;;;;;5014312;28;20034;-76
2021/10/13 05:18:44;;;;;;;21.73;7.23;;;;;;;;;;5022709;28;20100;-73
2021/10/13 05:21:09;;;;;;;15.27;6.63;;;;;;;;;;5015950;28;20061;-74
2021/10/13 05:23:36;;;;;;;21.03;7.70;;;;;;;;;;5017711;28;20065;-75
2021/10/13 05:26:01;;;;;;;14.67;6.67;;;;;;;;;;5017975;28;20056;-75
2021/10/13 05:28:28;;;;;;;23.33;8.17;;;;;;;;;;5025998;28;20021;-76
2021/10/13 05:30:53;;;;;;;25.37;8.23;;;;;;;;;;5030329;28;20033;-76
2021/10/13 05:33:19;;;;;;;23.57;8.57;;;;;;;;;;5020620;28;20079;-75
2021/10/13 05:35:45;;;;;;;17.93;6.57;;;;;;;;;;5013885;28;20100;-74
2021/10/13 05:38:11;;;;;;;16.87;6.80;;;;;;;;;;5031353;28;20112;-77
2021/10/13 05:40:37;;;;;;;21.93;6.97;;;;;;;;;;5028952;28;20128;-74
2021/10/13 05:43:03;;;;;;;19.07;7.77;;;;;;;;;;5022258;28;20026;-75
2021/10/13 05:45:28;;;;;;;14.33;7.33;;;;;;;;;;5020655;28;20170;-75
2021/10/13 05:47:54;;;;;;;22.10;8.93;;;;;;;;;;5024620;28;20056;-74
2021/10/13 05:50:20;;;;;;;15.77;7.30;;;;;;;;;;5016723;28;20037;-76
2021/10/13 05:52:45;;;;;;;22.40;7.53;;;;;;;;;;5022930;28;20026;-75
2021/10/13 05:55:11;;;;;;;24.80;7.40;;;;;;;;;;5026300;28;20140;-74
2021/10/13 05:57:37;;;;;;;24.47;8.30;;;;;;;;;;5025309;28;20040;-74
2021/10/13 06:00:07;;;;;;;13.43;6.60;;;;;;;;;;5016705;28;20052;-76
2021/10/13 06:02:34;;;;;;;14.03;8.17;;;;;;;;;;5019206;28;20021;-75
2021/10/13 06:05:00;;;;;;;15.90;7.43;;;;;;;;;;5025201;28;20033;-77
2021/10/13 06:07:27;;;;;;;18.23;7.60;;;;;;;;;;5031170;28;20018;-75
2021/10/13 06:09:53;;;;;;;16.50;7.47;;;;;;;;;;5027306;28;20026;-75
2021/10/13 06:12:18;;;;;;;19.80;8.50;;;;;;;;;;5016619;28;20033;-75
2021/10/13 06:14:44;;;;;;;17.07;8.17;;;;;;;;;;5017672;28;20097;-73
2021/10/13 06:17:12;;;;;;;24.87;8.23;;;;;;;;;;5015400;28;20103;-74
2021/10/13 06:19:37;;;;;;;17.00;7.30;;;;;;;;;;5013763;28;20025;-73
2021/10/13 06:22:03;;;;;;;23.83;9.07;;;;;;;;;;5016192;28;20033;-76
2021/10/13 06:24:30;;;;;;;20.90;8.13;;;;;;;;;;5013913;28;20323;-74
2021/10/13 06:26:55;;;;;;;150.60;37.97;;;;;;;;;;5022742;28;20032;-76
2021/10/13 06:29:21;;;;;;;27.20;10.07;;;;;;;;;;5028612;28;20373;-75
2021/10/13 06:31:46;;;;;;;22.07;9.67;;;;;;;;;;5024995;28;20435;-75
2021/10/13 06:34:14;;;;;;;22.97;9.23;;;;;;;;;;5016510;28;20033;-75
2021/10/13 06:36:40;;;;;;;27.37;9.50;;;;;;;;;;5015006;28;20106;-73
2021/10/13 06:39:05;;;;;;;21.70;10.70;;;;;;;;;;5019524;28;20054;-75
2021/10/13 06:41:31;;;;;;;17.30;8.50;;;;;;;;;;5023413;28;20044;-76
2021/10/13 06:44:00;;;;;;;17.00;9.33;;;;;;;;;;5020567;28;20886;-77
2021/10/13 06:46:27;;;;;;;21.37;9.17;;;;;;;;;;5027714;28;20025;-75
2021/10/13 06:48:52;;;;;;;19.83;8.87;;;;;;;;;;5029661;28;20497;-78
2021/10/13 06:51:18;;;;;;;15.43;7.97;;;;;;;;;;5018577;28;20029;-74
2021/10/13 06:53:46;;;;;;;19.57;9.53;;;;;;;;;;5010933;28;20037;-75
2021/10/13 06:56:14;;;;;;;20.63;9.87;;;;;;;;;;5016820;28;20431;-78
2021/10/13 06:58:40;;;;;;;19.43;9.33;;;;;;;;;;5015814;28;20052;-77
2021/10/13 07:01:06;;;;;;;22.77;8.97;;;;;;;;;;5017395;28;20025;-74
2021/10/13 07:03:32;;;;;;;23.20;9.30;;;;;;;;;;5021129;28;20030;-76
2021/10/13 07:05:57;;;;;;;31.87;10.20;;;;;;;;;;5014026;28;20627;-73
2021/10/13 07:08:26;;;;;;;22.47;8.67;;;;;;;;;;5015364;28;20635;-76
2021/10/13 07:10:53;;;;;;;18.57;9.10;;;;;;;;;;5017604;28;20107;-73
2021/10/13 07:13:19;;;;;;;23.90;8.43;;;;;;;;;;5019686;28;20033;-75
2021/10/13 07:15:44;;;;;;;20.30;8.67;;;;;;;;;;4999805;28;20040;-74
2021/10/13 07:18:10;;;;;;;20.93;8.77;;;;;;;;;;5018830;28;20036;-73
2021/10/13 07:20:37;;;;;;;21.70;9.37;;;;;;;;;;5025229;28;20031;-75
2021/10/13 07:23:05;;;;;;;20.20;8.67;;;;;;;;;;5008203;28;20030;-75
2021/10/13 07:25:31;;;;;;;22.77;8.97;;;;;;;;;;5028333;28;20121;-75
2021/10/13 07:27:58;;;;;;;30.43;9.60;;;;;;;;;;5025545;28;20155;-73
2021/10/13 07:30:24;;;;;;;22.83;9.50;;;;;;;;;;5018625;28;20109;-76
2021/10/13 07:32:53;;;;;;;22.80;9.23;;;;;;;;;;5019593;28;20556;-74
2021/10/13 07:35:20;;;;;;;17.10;9.23;;;;;;;;;;5005868;28;20199;-75
2021/10/13 07:37:46;;;;;;;14.80;7.80;;;;;;;;;;5017702;28;20040;-74
2021/10/13 07:40:13;;;;;;;20.73;8.53;;;;;;;;;;5020710;28;20600;-75
2021/10/13 07:42:40;;;;;;;16.47;7.87;;;;;;;;;;5020379;28;20094;-75
2021/10/13 07:45:07;;;;;;;13.10;6.30;;;;;;;;;;5023377;28;20060;-75
2021/10/13 07:47:33;;;;;;;26.27;8.43;;;;;;;;;;5022462;28;20029;-78
2021/10/13 07:49:58;;;;;;;18.70;8.77;;;;;;;;;;5024180;28;20053;-77
2021/10/13 07:52:24;;;;;;;22.20;7.40;;;;;;;;;;5021182;28;21223;-76
2021/10/13 07:54:49;;;;;;;21.73;7.20;;;;;;;;;;5025466;28;20025;-75
2021/10/13 07:57:15;;;;;;;16.67;8.07;;;;;;;;;;5021050;28;20072;-74
2021/10/13 07:59:41;;;;;;;14.83;7.80;;;;;;;;;;5006893;28;20500;-74
2021/10/13 08:02:07;;;;;;;14.17;6.73;;;;;;;;;;5020287;28;20099;-76
2021/10/13 08:04:32;;;;;;;12.47;7.40;;;;;;;;;;5017340;28;20036;-75
2021/10/13 08:06:58;;;;;;;12.77;7.50;;;;;;;;;;5018025;28;20053;-75
2021/10/13 08:09:24;;;;;;;19.10;8.13;;;;;;;;;;5017311;28;20473;-75
2021/10/13 08:11:51;;;;;;;17.70;8.03;;;;;;;;;;5020398;28;20030;-77
2021/10/13 08:14:17;;;;;;;20.90;8.67;;;;;;;;;;5020437;28;20036;-75
2021/10/13 08:16:43;;;;;;;18.63;8.47;;;;;;;;;;5022343;28;20061;-76
2021/10/13 08:19:08;;;;;;;18.87;9.27;;;;;;;;;;5023075;28;20033;-76
2021/10/13 08:21:34;;;;;;;20.63;8.73;;;;;;;;;;5021923;28;20167;-77
2021/10/13 08:24:00;;;;;;;21.13;7.77;;;;;;;;;;5021385;28;20061;-75
2021/10/13 08:26:25;;;;;;;22.10;8.87;;;;;;;;;;5022206;28;20038;-75
2021/10/13 08:28:51;;;;;;;16.87;7.87;;;;;;;;;;5018122;28;20510;-75
2021/10/13 08:31:16;;;;;;;16.70;8.83;;;;;;;;;;5016768;28;20037;-75
2021/10/13 08:33:42;;;;;;;12.50;6.23;;;;;;;;;;5023414;28;20029;-76
2021/10/13 08:36:08;;;;;;;15.27;7.80;;;;;;;;;;5017263;28;20124;-76
2021/10/13 08:38:35;;;;;;;18.93;8.67;;;;;;;;;;5016160;28;20064;-75
2021/10/13 08:41:01;;;;;;;14.63;6.90;;;;;;;;;;5020304;28;20442;-76
2021/10/13 08:43:27;;;;;;;15.83;8.67;;;;;;;;;;5007906;28;20034;-76
2021/10/13 08:45:52;;;;;;;14.37;7.90;;;;;;;;;;5020331;28;20060;-75
2021/10/13 08:48:18;;;;;;;19.63;8.67;;;;;;;;;;5016163;28;20025;-76
2021/10/13 08:50:49;;;;;;;14.90;7.30;;;;;;;;;;5019332;28;20053;-76
2021/10/13 08:53:18;;;;;;;24.67;7.28;;;;;;;;;;5023594;28;20508;-76
2021/10/13 08:55:45;;;;;;;17.60;7.43;;;;;;;;;;5018899;28;20107;-76
2021/10/13 08:58:28;;;;;;;14.70;7.20;;;;;;;;;;5023169;28;20353;-76
2021/10/13 09:01:07;;;;;;;13.47;6.43;;;;;;;;;;5017308;28;20025;-74
2021/10/13 09:04:08;;;;;;;17.03;6.60;;;;;;;;;;5020336;28;20040;-77
2021/10/13 09:06:34;;;;;;;20.10;6.83;;;;;;;;;;4980008;28;20659;-75
2021/10/13 09:09:09;;;;;;;15.13;6.77;;;;;;;;;;5012466;28;20037;-76
2021/10/13 09:11:47;;;;;;;18.20;7.27;;;;;;;;;;5015825;28;20025;-74
2021/10/13 09:14:20;;;;;;;13.53;5.97;;;;;;;;;;5022017;28;20082;-77
2021/10/13 09:16:54;;;;;;;13.17;6.17;;;;;;;;;;5015671;28;20534;-77
2021/10/13 09:19:22;;;;;;;14.30;6.47;;;;;;;;;;5022387;28;20119;-76
2021/10/13 09:21:55;;;;;;;9.90;5.10;;;;;;;;;;5020153;28;20164;-77
2021/10/13 09:24:24;;;;;;;9.33;4.10;;;;;;;;;;5019402;28;20063;-76
2021/10/13 09:26:50;;;;;;;11.10;4.53;;;;;;;;;;5017384;28;20076;-76
2021/10/13 09:29:16;;;;;;;8.70;4.43;;;;;;;;;;5015369;28;20116;-75
2021/10/13 09:31:41;;;;;;;7.70;4.30;;;;;;;;;;5020904;28;20037;-76
2021/10/13 09:34:10;;;;;;;10.33;3.77;;;;;;;;;;5017408;28;20025;-76
2021/10/13 09:36:37;;;;;;;6.07;3.60;;;;;;;;;;5017949;28;20040;-75
2021/10/13 09:39:23;;;;;;;7.60;3.97;;;;;;;;;;5018447;28;20045;-75
2021/10/13 09:42:08;;;;;;;5.77;3.60;;;;;;;;;;5021998;28;20033;-77
2021/10/13 09:44:57;;;;;;;4.30;2.83;;;;;;;;;;5017922;28;20434;-78
2021/10/13 09:47:31;;;;;;;4.57;2.93;;;;;;;;;;5023934;28;20033;-75
2021/10/13 09:49:57;;;;;;;8.10;3.70;;;;;;;;;;5023609;28;20038;-77
2021/10/13 09:52:30;;;;;;;6.77;3.30;;;;;;;;;;5017814;28;20026;-76
2021/10/13 09:55:04;;;;;;;7.97;3.47;;;;;;;;;;5020132;28;20026;-75
2021/10/13 09:57:32;;;;;;;9.37;3.77;;;;;;;;;;5024498;28;20072;-74
2021/10/13 10:00:14;;;;;;;6.57;3.23;;;;;;;;;;5019497;28;20504;-75
2021/10/13 10:02:51;;;;;;;7.87;3.57;;;;;;;;;;5018479;28;20128;-77
2021/10/13 10:05:30;;;;;;;8.33;3.03;;;;;;;;;;5020389;28;20034;-75
2021/10/13 10:08:25;;;;;;;9.27;4.33;;;;;;;;;;5017798;28;20057;-76
2021/10/13 10:11:03;;;;;;;6.07;3.58;;;;;;;;;;5012849;28;20053;-77
2021/10/13 10:13:34;;;;;;;7.30;3.53;;;;;;;;;;5017042;28;20691;-77
2021/10/13 10:16:00;;;;;;;10.45;3.60;;;;;;;;;;5019625;28;20034;-75
2021/10/13 10:18:34;;;;;;;8.02;4.28;;;;;;;;;;5017864;28;20345;-76
2021/10/13 10:21:25;;;;;;;5.57;3.60;;;;;;;;;;5017792;28;20053;-73
2021/10/13 10:23:57;;;;;;;5.32;2.45;;;;;;;;;;5004099;28;20187;-75
2021/10/13 10:26:26;;;;;;;4.05;2.95;;;;;;;;;;5015794;28;20025;-75
2021/10/13 10:28:55;;;;;;;51.65;9.27;;;;;;;;;;5021363;28;20537;-75
2021/10/13 10:31:40;;;;;;;8.82;3.00;;;;;;;;;;5021396;28;20091;-73
2021/10/13 10:34:08;;;;;;;6.93;2.40;;;;;;;;;;5019230;28;20040;-75
2021/10/13 10:36:35;;;;;;;4.85;2.00;;;;;;;;;;5018457;28;20033;-76
2021/10/13 10:39:01;;;;;;;3.85;2.40;;;;;;;;;;5018700;28;20444;-76
2021/10/13 10:41:54;;;;;;;6.50;2.42;;;;;;;;;;5012381;28;20521;-77
2021/10/13 10:44:27;;;;;;;4.53;1.60;;;;;;;;;;5017536;28;20029;-79
2021/10/13 10:47:16;;;;;;;4.80;2.17;;;;;;;;;;5010589;28;20038;-78
2021/10/13 10:50:05;;;;;;;4.25;2.58;;;;;;;;;;5017192;28;20180;-75
2021/10/13 10:52:30;;;;;;;6.28;2.58;;;;;;;;;;5011329;28;20121;-76
2021/10/13 10:55:15;;;;;;;4.65;3.47;;;;;;;;;;5012028;28;20514;-76
2021/10/13 10:57:48;;;;;;;10.57;2.20;;;;;;;;;;5018801;28;20130;-74
2021/10/13 11:00:22;;;;;;;4.47;2.35;;;;;;;;;;5015036;28;20022;-76
2021/10/13 11:03:11;;;;;;;2.70;2.00;;;;;;;;;;5013129;28;20033;-75
2021/10/13 11:05:38;;;;;;;2.45;1.40;;;;;;;;;;5013858;28;20044;-75
2021/10/13 11:08:04;;;;;;;4.05;1.52;;;;;;;;;;5013769;28;20038;-76
2021/10/13 11:10:30;;;;;;;6.70;2.13;;;;;;;;;;5022847;28;20029;-77
2021/10/13 11:12:57;;;;;;;9.70;1.95;;;;;;;;;;5023887;28;20025;-76
2021/10/13 11:15:26;;;;;;;6.45;2.67;;;;;;;;;;5018747;28;20068;-75
2021/10/13 11:17:52;;;;;;;5.07;1.83;;;;;;;;;;5022771;28;20519;-78
2021/10/13 11:20:23;;;;;;;11.80;2.42;;;;;;;;;;5023396;28;20028;-78
2021/10/13 11:23:02;;;;;;;9.55;3.50;;;;;;;;;;5023301;28;20033;-77
2021/10/13 11:25:30;;;;;;;5.43;2.97;;;;;;;;;;5025299;28;20040;-73
2021/10/13 11:28:12;;;;;;;4.00;1.63;;;;;;;;;;5021098;28;20029;-76
2021/10/13 11:30:47;;;;;;;5.60;1.63;;;;;;;;;;5015010;28;20510;-76
2021/10/13 11:33:18;;;;;;;4.47;2.13;;;;;;;;;;5020151;28;20053;-76
2021/10/13 11:35:45;;;;;;;3.13;1.90;;;;;;;;;;5021614;28;21096;-75
2021/10/13 11:38:18;;;;;;;3.17;1.77;;;;;;;;;;5020643;28;20354;-75
2021/10/13 11:40:44;;;;;;;8.80;2.22;;;;;;;;;;5025952;28;20038;-77
2021/10/13 11:43:16;;;;;;;9.93;3.65;;;;;;;;;;5023844;28;20595;-75
2021/10/13 11:45:50;;;;;;;12.32;2.67;;;;;;;;;;5022398;28;20095;-75
2021/10/13 11:48:26;;;;;;;5.38;3.00;;;;;;;;;;5017145;28;20099;-77
2021/10/13 11:50:53;;;;;;;8.60;2.90;;;;;;;;;;5016202;28;20039;-76
2021/10/13 11:53:20;;;;;;;13.18;3.72;;;;;;;;;;5033379;28;20486;-75
2021/10/13 11:55:46;;;;;;;6.63;2.40;;;;;;;;;;5013490;28;20040;-76
2021/10/13 11:58:24;;;;;;;3.97;2.50;;;;;;;;;;5020119;28;20117;-75
2021/10/13 12:00:50;;;;;;;3.88;2.60;;;;;;;;;;5020145;28;20030;-75
2021/10/13 12:03:17;;;;;;;3.17;2.35;;;;;;;;;;5014939;28;20027;-76
2021/10/13 12:05:58;;;;;;;3.33;2.95;;;;;;;;;;5020551;28;20542;-75
2021/10/13 12:08:30;;;;;;;3.88;2.95;;;;;;;;;;5021474;28;20472;-77
2021/10/13 12:11:13;;;;;;;6.20;3.03;;;;;;;;;;5008482;28;20132;-76
2021/10/13 12:13:48;;;;;;;5.13;2.60;;;;;;;;;;5019106;28;20034;-76
2021/10/13 12:16:20;;;;;;;3.50;3.20;;;;;;;;;;5019630;28;20461;-75
2021/10/13 12:18:46;;;;;;;6.82;3.45;;;;;;;;;;5023808;28;20083;-76
2021/10/13 12:21:15;;;;;;;6.43;3.00;;;;;;;;;;5024483;28;20033;-75
2021/10/13 12:23:44;;;;;;;5.35;3.22;;;;;;;;;;5023127;28;20036;-75
2021/10/13 12:26:30;;;;;;;6.43;3.05;;;;;;;;;;5019432;28;20021;-76
2021/10/13 12:28:57;;;;;;;7.07;3.45;;;;;;;;;;5020247;28;20045;-76
2021/10/13 12:31:31;;;;;;;4.70;3.13;;;;;;;;;;5026965;28;20031;-75
2021/10/13 12:34:20;;;;;;;6.50;3.83;;;;;;;;;;5008338;28;20029;-76
2021/10/13 12:36:54;;;;;;;7.45;3.67;;;;;;;;;;5019457;28;20038;-75
2021/10/13 12:39:38;;;;;;;5.65;3.83;;;;;;;;;;5024856;28;20137;-76
2021/10/13 12:42:12;;;;;;;14.25;7.75;;;;;;;;;;5022240;28;20522;-75
2021/10/13 12:44:39;;;;;;;7.25;4.00;;;;;;;;;;5009528;28;20037;-75
2021/10/13 12:47:08;;;;;;;3.95;3.58;;;;;;;;;;5018357;28;20050;-75
2021/10/13 12:49:48;;;;;;;8.13;3.80;;;;;;;;;;5021337;28;20026;-76
2021/10/13 12:52:27;;;;;;;6.72;4.18;;;;;;;;;;5020608;28;20508;-75
2021/10/13 12:55:03;;;;;;;5.20;3.30;;;;;;;;;;5017731;28;20446;-76
2021/10/13 12:57:31;;;;;;;9.02;4.07;;;;;;;;;;5022741;28;20052;-74
2021/10/13 13:00:00;;;;;;;6.97;4.15;;;;;;;;;;5033278;28;20053;-75
2021/10/13 13:02:28;;;;;;;7.05;3.38;;;;;;;;;;5022937;28;20449;-74
2021/10/13 13:04:55;;;;;;;11.05;3.80;;;;;;;;;;5020546;28;20037;-76
2021/10/13 13:07:22;;;;;;;14.52;4.07;;;;;;;;;;5020589;28;20038;-75
2021/10/13 13:09:49;;;;;;;8.15;4.18;;;;;;;;;;5020675;28;20034;-78
2021/10/13 13:12:14;;;;;;;13.20;5.03;;;;;;;;;;5020877;28;20417;-75
2021/10/13 13:14:40;;;;;;;5.30;3.90;;;;;;;;;;5026288;28;20038;-77
2021/10/13 13:17:08;;;;;;;7.55;4.03;;;;;;;;;;5020934;28;20515;-74
2021/10/13 13:19:33;;;;;;;5.05;4.55;;;;;;;;;;5018592;28;20061;-76
2021/10/13 13:21:59;;;;;;;6.75;4.82;;;;;;;;;;5023110;28;20040;-75
2021/10/13 13:24:25;;;;;;;5.30;3.67;;;;;;;;;;5019650;28;20549;-76
2021/10/13 13:26:51;;;;;;;7.82;5.72;;;;;;;;;;5007771;28;20034;-77
2021/10/13 13:29:18;;;;;;;5.25;4.10;;;;;;;;;;5023891;28;20036;-75
2021/10/13 13:31:45;;;;;;;9.85;4.65;;;;;;;;;;5023939;28;20172;-74
2021/10/13 13:34:11;;;;;;;10.07;4.40;;;;;;;;;;5025043;28;20056;-74
2021/10/13 13:36:45;;;;;;;14.65;11.25;;;;;;;;;;5024521;28;20120;-76
2021/10/13 13:39:13;;;;;;;6.82;4.75;;;;;;;;;;5025826;28;20508;-74
2021/10/13 13:41:39;;;;;;;5.07;4.32;;;;;;;;;;5024187;28;20037;-74
2021/10/13 13:44:06;;;;;;;11.80;4.70;;;;;;;;;;5019697;28;20038;-75
2021/10/13 13:46:33;;;;;;;6.07;4.38;;;;;;;;;;5021511;28;20123;-76
2021/10/13 13:48:59;;;;;;;5.00;3.83;;;;;;;;;;5035610;28;20500;-78
2021/10/13 13:51:25;;;;;;;5.15;3.90;;;;;;;;;;5017909;28;20052;-76
2021/10/13 13:53:52;;;;;;;5.43;3.80;;;;;;;;;;5025085;28;20037;-75
2021/10/13 13:56:17;;;;;;;4.65;3.42;;;;;;;;;;5021843;28;20378;-75
2021/10/13 13:58:43;;;;;;;4.50;3.58;;;;;;;;;;5017384;28;20082;-74
2021/10/13 14:01:10;;;;;;;4.25;3.60;;;;;;;;;;5021858;28;20075;-74
2021/10/13 14:03:35;;;;;;;6.85;3.67;;;;;;;;;;5026721;28;20057;-75
2021/10/13 14:06:08;;;;;;;7.75;4.00;;;;;;;;;;5021377;28;20064;-73
2021/10/13 14:08:33;;;;;;;6.78;4.63;;;;;;;;;;5021575;28;20029;-75
2021/10/13 14:10:58;;;;;;;6.60;3.67;;;;;;;;;;5024545;28;20532;-75
2021/10/13 14:13:24;;;;;;;3.70;3.30;;;;;;;;;;5023374;28;20116;-75
2021/10/13 14:15:51;;;;;;;5.93;3.25;;;;;;;;;;5020483;28;20064;-75
2021/10/13 14:18:16;;;;;;;3.97;2.80;;;;;;;;;;5007219;28;20051;-75
2021/10/13 14:20:42;;;;;;;5.85;3.30;;;;;;;;;;5008182;28;20037;-76
2021/10/13 14:23:09;;;;;;;6.88;3.03;;;;;;;;;;5021254;28;20052;-74
2021/10/13 14:25:35;;;;;;;3.55;2.83;;;;;;;;;;5019957;28;20091;-73
2021/10/13 14:28:01;;;;;;;6.13;2.53;;;;;;;;;;5016417;28;20034;-75
2021/10/13 14:30:27;;;;;;;3.92;2.50;;;;;;;;;;5015371;28;20033;-75
2021/10/13 14:32:52;;;;;;;3.97;3.00;;;;;;;;;;5016365;28;20033;-75
2021/10/13 14:35:18;;;;;;;4.85;2.53;;;;;;;;;;5016466;28;20044;-76
2021/10/13 14:37:43;;;;;;;4.00;3.25;;;;;;;;;;5014354;28;20040;-74
2021/10/13 14:40:12;;;;;;;5.65;2.60;;;;;;;;;;5022117;28;20122;-73
2021/10/13 14:42:38;;;;;;;7.63;3.30;;;;;;;;;;5018963;28;20042;-76
2021/10/13 14:45:06;;;;;;;3.80;2.88;;;;;;;;;;5020032;28;20033;-76